Time;durP1;ratioP1;P1;durP2;ratioP2;P2;SDS_P1;SDS_P2;PMS_P1;PMS_P2;Temp;Humidity;BMP_temperature;BMP_pressure;BME280_temperature;BME280_humidity;BME280_pressure;Samples;Min_cycle;Max_cycle;Signal;HPM_P1;HPM_P2
2023/01/15 00:04:16;;;;;;;;;;;;;;;19.80;37.36;94821.41;10394078;28;3237;-49
2023/01/15 00:09:17;;;;;;;;;;;;;;;19.80;37.43;94808.28;10388730;28;3414;-45
2023/01/15 00:14:17;;;;;;;;;;;;;;;19.76;37.40;94781.78;10387016;28;3351;-45
2023/01/15 00:19:17;;;;;;;;;;;;;;;19.76;37.39;94781.00;10390426;28;2314;-45
2023/01/15 00:29:36;;;;;;;;;;;;;;;19.71;37.19;94773.19;10385715;28;3305;-45
2023/01/15 00:34:37;;;;;;;;;;;;;;;19.72;37.05;94772.88;10397283;28;2315;-46
2023/01/15 00:39:37;;;;;;;;;;;;;;;19.69;37.43;94767.44;10392606;28;2253;-45
2023/01/15 00:44:37;;;;;;;;;;;;;;;19.67;37.34;94756.44;10396398;28;2266;-48
2023/01/15 00:49:38;;;;;;;;;;;;;;;19.65;37.15;94763.84;10398449;28;3413;-45
2023/01/15 00:54:38;;;;;;;;;;;;;;;19.64;37.28;94743.88;10395614;28;3267;-46
2023/01/15 00:59:38;;;;;;;;;;;;;;;19.62;37.21;94764.44;10394957;28;3229;-45
2023/01/15 01:04:38;;;;;;;;;;;;;;;19.62;36.92;94754.69;10392986;28;3383;-46
2023/01/15 01:09:39;;;;;;;;;;;;;;;19.58;37.05;94742.44;10389971;28;2320;-45
2023/01/15 01:14:39;;;;;;;;;;;;;;;19.57;37.02;94730.34;10396978;28;3367;-46
2023/01/15 01:19:39;;;;;;;;;;;;;;;19.55;37.08;94727.22;10394218;28;2257;-45
2023/01/15 01:24:39;;;;;;;;;;;;;;;19.53;36.92;94729.38;10395801;28;3471;-46
2023/01/15 01:29:40;;;;;;;;;;;;;;;19.52;36.92;94731.22;10400673;28;3353;-45
2023/01/15 01:34:40;;;;;;;;;;;;;;;19.50;36.78;94714.94;10395060;28;3315;-45
2023/01/15 01:39:40;;;;;;;;;;;;;;;19.48;36.91;94702.09;10393549;28;3257;-46
2023/01/15 01:44:43;;;;;;;;;;;;;;;19.47;36.92;94687.38;10387085;28;3390;-45
2023/01/15 01:49:44;;;;;;;;;;;;;;;19.44;37.11;94674.06;10394864;28;3372;-46
2023/01/15 01:54:45;;;;;;;;;;;;;;;19.44;37.06;94658.28;10403458;28;2253;-45
2023/01/15 01:59:45;;;;;;;;;;;;;;;19.42;36.95;94649.94;10385725;28;2321;-47
2023/01/15 02:04:46;;;;;;;;;;;;;;;19.39;37.05;94624.25;10391188;28;2300;-45
2023/01/15 02:09:46;;;;;;;;;;;;;;;19.39;36.91;94629.50;10390456;28;3400;-48
2023/01/15 02:14:52;;;;;;;;;;;;;;;19.35;36.94;94624.03;10399136;28;3303;-47
2023/01/15 02:20:00;;;;;;;;;;;;;;;19.35;36.87;94623.28;10393576;28;3307;-45
2023/01/15 02:25:36;;;;;;;;;;;;;;;19.33;36.79;94615.66;10410863;28;2433;-47
2023/01/15 02:30:40;;;;;;;;;;;;;;;19.31;37.03;94603.84;10385061;28;2349;-45
2023/01/15 02:35:42;;;;;;;;;;;;;;;19.31;37.12;94601.22;10412522;28;2380;-45
2023/01/15 02:40:42;;;;;;;;;;;;;;;19.29;36.94;94606.78;10391873;28;2269;-47
2023/01/15 02:45:43;;;;;;;;;;;;;;;19.27;36.71;94590.53;10392424;28;3435;-45
2023/01/15 02:50:51;;;;;;;;;;;;;;;19.26;36.92;94594.25;10395787;28;3319;-48
2023/01/15 02:55:53;;;;;;;;;;;;;;;19.24;36.72;94591.13;10385768;28;2292;-46
2023/01/15 03:00:54;;;;;;;;;;;;;;;19.23;36.91;94575.63;10398141;28;2249;-46
2023/01/15 03:05:59;;;;;;;;;;;;;;;19.22;36.99;94569.63;10396131;28;3383;-45
2023/01/15 03:10:59;;;;;;;;;;;;;;;19.22;36.98;94572.25;10410870;28;3316;-47
2023/01/15 03:16:46;;;;;;;;;;;;;;;19.20;36.99;94557.84;10401020;28;3325;-45
2023/01/15 03:21:32;;;;;;;;;;;;;;;19.19;37.15;94537.88;10407158;28;3359;-44
2023/01/15 03:26:33;;;;;;;;;;;;;;;19.18;37.08;94537.13;10397670;28;3282;-44
2023/01/15 03:31:33;;;;;;;;;;;;;;;19.17;37.08;94543.44;10397941;28;3333;-47
2023/01/15 03:36:34;;;;;;;;;;;;;;;19.16;37.00;94534.03;10394709;28;3380;-45
2023/01/15 03:41:41;;;;;;;;;;;;;;;19.16;36.92;94517.47;10393988;28;3315;-45
2023/01/15 03:46:41;;;;;;;;;;;;;;;19.12;37.07;94519.91;10395552;28;2306;-46
2023/01/15 03:51:45;;;;;;;;;;;;;;;19.12;37.06;94524.38;10385811;28;2309;-46
2023/01/15 03:56:58;;;;;;;;;;;;;;;19.09;36.97;94514.44;10392206;28;3296;-45
2023/01/15 04:01:58;;;;;;;;;;;;;;;19.11;37.04;94507.06;10389542;28;2338;-44
2023/01/15 04:06:59;;;;;;;;;;;;;;;19.09;37.05;94506.56;10409195;28;3307;-47
2023/01/15 04:11:59;;;;;;;;;;;;;;;19.07;37.00;94492.97;10417505;28;3439;-45
2023/01/15 04:17:00;;;;;;;;;;;;;;;19.06;37.10;94499.28;10394850;28;3272;-47
2023/01/15 04:22:00;;;;;;;;;;;;;;;19.05;37.07;94498.50;10390530;28;2344;-45
2023/01/15 04:27:00;;;;;;;;;;;;;;;19.03;37.17;94492.78;10400974;28;2326;-44
2023/01/15 04:32:00;;;;;;;;;;;;;;;19.03;37.12;94490.16;10389767;28;2312;-46
2023/01/15 04:37:01;;;;;;;;;;;;;;;19.01;37.19;94476.53;10389729;28;2269;-45
2023/01/15 04:47:20;;;;;;;;;;;;;;;19.02;37.03;94467.56;10388916;28;2309;-45
2023/01/15 04:52:20;;;;;;;;;;;;;;;19.00;37.20;94453.97;10385426;28;3304;-47
2023/01/15 04:57:20;;;;;;;;;;;;;;;18.99;37.05;94460.28;10392336;28;3335;-45
2023/01/15 05:02:20;;;;;;;;;;;;;;;18.96;36.91;94457.50;10389843;28;3475;-45
2023/01/15 05:07:21;;;;;;;;;;;;;;;18.98;37.20;94460.59;10394974;28;3256;-45
2023/01/15 05:12:21;;;;;;;;;;;;;;;18.96;36.86;94460.88;10395946;28;3303;-46
2023/01/15 05:17:22;;;;;;;;;;;;;;;18.98;37.13;94460.59;10396106;28;3335;-45
2023/01/15 05:22:22;;;;;;;;;;;;;;;18.98;37.17;94477.09;10390955;28;3217;-45
2023/01/15 05:27:22;;;;;;;;;;;;;;;19.05;37.03;94476.72;10388925;28;3260;-45
2023/01/15 05:32:22;;;;;;;;;;;;;;;19.10;36.65;94464.25;10387642;28;3267;-45
2023/01/15 05:37:23;;;;;;;;;;;;;;;19.14;35.51;94475.75;10391732;28;3330;-46
2023/01/15 05:42:23;;;;;;;;;;;;;;;19.18;34.79;94454.91;10389121;28;3241;-45
2023/01/15 05:47:23;;;;;;;;;;;;;;;19.23;34.52;94452.94;10395454;28;3316;-45
2023/01/15 05:52:23;;;;;;;;;;;;;;;19.26;34.55;94439.22;10396406;28;3300;-47
2023/01/15 05:57:24;;;;;;;;;;;;;;;19.32;34.35;94439.88;10396812;28;3319;-46
2023/01/15 06:02:24;;;;;;;;;;;;;;;19.34;34.29;94446.44;10404930;28;3240;-45
2023/01/15 06:07:24;;;;;;;;;;;;;;;19.37;34.30;94437.94;10400660;28;3276;-45
2023/01/15 06:12:24;;;;;;;;;;;;;;;19.41;34.25;94443.41;10404004;28;3253;-46
2023/01/15 06:17:25;;;;;;;;;;;;;;;19.44;34.26;94450.69;10404938;28;3373;-46
2023/01/15 06:22:25;;;;;;;;;;;;;;;19.48;34.19;94443.75;10403603;28;3407;-46
2023/01/15 06:27:26;;;;;;;;;;;;;;;19.48;34.32;94444.53;10402816;28;3264;-45
2023/01/15 06:32:26;;;;;;;;;;;;;;;19.52;34.57;94454.44;10394388;28;3253;-44
2023/01/15 06:37:26;;;;;;;;;;;;;;;19.56;35.71;94458.06;10396774;28;3451;-47
2023/01/15 06:47:46;;;;;;;;;;;;;;;19.59;34.84;94439.84;10395835;28;3249;-47
2023/01/15 06:52:46;;;;;;;;;;;;;;;19.59;34.39;94441.69;10409984;28;3268;-47
2023/01/15 06:57:46;;;;;;;;;;;;;;;19.60;34.63;94451.88;10394951;28;2273;-45
2023/01/15 07:02:47;;;;;;;;;;;;;;;19.61;34.57;94448.19;10397783;28;3230;-45
2023/01/15 07:07:47;;;;;;;;;;;;;;;19.61;34.48;94434.28;10394679;28;3308;-46
2023/01/15 07:12:47;;;;;;;;;;;;;;;19.61;34.55;94434.28;10397977;28;3272;-46
2023/01/15 07:17:47;;;;;;;;;;;;;;;19.60;34.36;94441.38;10397286;28;3329;-45
2023/01/15 07:22:48;;;;;;;;;;;;;;;19.59;34.69;94429.31;10393305;28;3252;-45
2023/01/15 07:27:48;;;;;;;;;;;;;;;19.61;34.60;94434.28;10395310;28;3366;-47
2023/01/15 07:32:49;;;;;;;;;;;;;;;19.63;34.86;94442.63;10389990;28;3437;-47
2023/01/15 07:37:50;;;;;;;;;;;;;;;19.63;34.58;94459.19;10393239;28;3300;-45
2023/01/15 07:53:28;;;;;;;;;;;;;;;19.66;34.76;94465.72;10405542;28;2258;-45
2023/01/15 07:58:28;;;;;;;;;;;;;;;19.67;34.90;94459.38;10397292;28;3252;-45
2023/01/15 08:03:28;;;;;;;;;;;;;;;19.65;34.72;94457.03;10389749;28;3395;-46
2023/01/15 08:08:29;;;;;;;;;;;;;;;19.66;34.92;94457.81;10388698;28;3320;-46
2023/01/15 08:18:50;;;;;;;;;;;;;;;19.67;34.58;94444.38;10390861;28;3279;-47
2023/01/15 08:23:50;;;;;;;;;;;;;;;19.67;34.88;94430.44;10385434;28;3319;-47
2023/01/15 08:28:50;;;;;;;;;;;;;;;19.67;34.87;94443.59;10391231;28;3339;-45
2023/01/15 08:33:50;;;;;;;;;;;;;;;19.66;34.69;94455.19;10389806;28;3411;-48
2023/01/15 08:38:51;;;;;;;;;;;;;;;19.65;34.67;94437.84;10394785;28;3313;-47
2023/01/15 08:43:51;;;;;;;;;;;;;;;19.65;34.88;94430.75;10391150;28;3320;-46
2023/01/15 08:48:52;;;;;;;;;;;;;;;19.66;34.82;94429.66;10386400;28;3233;-45
2023/01/15 08:53:52;;;;;;;;;;;;;;;19.66;34.78;94411.25;10388079;28;2337;-45
2023/01/15 08:58:52;;;;;;;;;;;;;;;19.68;34.93;94416.25;10392758;28;2365;-47
2023/01/15 09:03:53;;;;;;;;;;;;;;;19.70;35.08;94393.81;10388545;28;2312;-46
2023/01/15 09:08:53;;;;;;;;;;;;;;;19.68;34.89;94382.06;10383745;28;3316;-47
2023/01/15 09:13:53;;;;;;;;;;;;;;;19.65;34.83;94396.59;10398688;28;3300;-46
2023/01/15 09:18:53;;;;;;;;;;;;;;;19.65;35.18;94374.75;10401764;28;2334;-45
2023/01/15 09:23:54;;;;;;;;;;;;;;;19.61;35.03;94366.72;10393895;28;3330;-45
2023/01/15 09:28:54;;;;;;;;;;;;;;;19.58;35.70;94346.28;10388778;28;3296;-45
2023/01/15 09:33:54;;;;;;;;;;;;;;;19.59;35.64;94339.94;10401624;28;3384;-48
2023/01/15 09:38:55;;;;;;;;;;;;;;;19.57;35.63;94346.56;10404197;28;3307;-46
2023/01/15 09:43:58;;;;;;;;;;;;;;;19.53;35.45;94330.63;10393995;28;3314;-47
2023/01/15 09:49:18;;;;;;;;;;;;;;;19.51;35.67;94318.88;10409426;28;2321;-45
2023/01/15 09:54:18;;;;;;;;;;;;;;;19.51;35.41;94337.25;10397743;28;2082;-46
2023/01/15 09:59:27;;;;;;;;;;;;;;;19.59;36.20;94354.94;10400201;28;2113;-49
2023/01/15 10:04:27;;;;;;;;;;;;;;;19.56;36.07;94368.69;10401495;28;2141;-45
2023/01/15 10:09:30;;;;;;;;;;;;;;;19.60;36.96;94444.00;10411951;28;2335;-45
2023/01/15 10:14:37;;;;;;;;;;;;;;;19.64;37.36;94491.53;10396313;28;2037;-44
2023/01/15 10:19:37;;;;;;;;;;;;;;;19.39;37.51;94530.41;10379106;28;2253;-44
2023/01/15 10:24:38;;;;;;;;;;;;;;;19.52;37.08;94589.28;10388351;28;2069;-45
2023/01/15 10:29:43;;;;;;;;;;;;;;;19.56;36.92;94610.50;10393925;28;2169;-44
2023/01/15 10:34:43;;;;;;;;;;;;;;;19.55;37.58;94627.34;10385315;28;2280;-45
2023/01/15 10:40:02;;;;;;;;;;;;;;;19.55;37.51;94643.91;10390709;28;2018;-44
2023/01/15 10:45:05;;;;;;;;;;;;;;;19.55;37.39;94638.63;10400942;28;1947;-44
2023/01/15 10:50:14;;;;;;;;;;;;;;;19.55;37.58;94654.41;10388397;28;1993;-46
2023/01/15 10:55:28;;;;;;;;;;;;;;;19.55;37.76;94651.00;10408830;28;2076;-44
2023/01/15 11:00:28;;;;;;;;;;;;;;;19.51;37.53;94652.66;10411635;28;2171;-46
2023/01/15 11:05:28;;;;;;;;;;;;;;;19.51;37.89;94656.06;10397311;28;2049;-48
2023/01/15 11:10:29;;;;;;;;;;;;;;;19.56;37.76;94642.06;10387354;28;2197;-45
2023/01/15 11:20:48;;;;;;;;;;;;;;;19.60;38.16;94638.53;10401175;28;2036;-49
2023/01/15 11:25:52;;;;;;;;;;;;;;;19.56;37.64;94637.56;10401170;28;1990;-46
2023/01/15 11:30:53;;;;;;;;;;;;;;;19.54;38.22;94638.94;10414309;28;2062;-48
2023/01/15 11:35:57;;;;;;;;;;;;;;;19.50;38.04;94651.88;10400503;28;2247;-46
2023/01/15 11:40:58;;;;;;;;;;;;;;;19.48;37.80;94670.56;10405542;28;2221;-47
2023/01/15 11:51:17;;;;;;;;;;;;;;;19.45;37.87;94707.94;10398265;28;2041;-46
2023/01/15 11:56:19;;;;;;;;;;;;;;;19.42;37.89;94742.69;10394314;28;2073;-45
2023/01/15 12:01:25;;;;;;;;;;;;;;;19.40;37.55;94755.34;10392786;28;2071;-46
2023/01/15 12:06:33;;;;;;;;;;;;;;;19.42;38.72;94760.31;10438131;28;2047;-48
2023/01/15 12:11:39;;;;;;;;;;;;;;;19.41;38.45;94782.41;10434036;28;2052;-43
2023/01/15 12:16:52;;;;;;;;;;;;;;;19.37;38.47;94800.56;10422608;28;2173;-44
2023/01/15 12:22:11;;;;;;;;;;;;;;;19.34;38.67;94811.69;10425089;28;2181;-44
2023/01/15 12:27:17;;;;;;;;;;;;;;;19.32;38.34;94818.25;10435361;28;2049;-46
2023/01/15 12:32:19;;;;;;;;;;;;;;;19.32;37.76;94824.28;10412795;28;2204;-46
2023/01/15 12:37:22;;;;;;;;;;;;;;;19.38;37.87;94828.44;10422833;28;2080;-44
2023/01/15 12:47:51;;;;;;;;;;;;;;;19.22;37.48;94834.97;10409651;28;2182;-45
2023/01/15 12:53:03;;;;;;;;;;;;;;;19.20;37.09;94847.63;10419344;28;2026;-44
2023/01/15 12:58:04;;;;;;;;;;;;;;;19.14;37.28;94846.13;10424807;28;2340;-44
2023/01/15 13:03:08;;;;;;;;;;;;;;;19.11;37.28;94854.56;10428157;28;2084;-46
2023/01/15 13:08:12;;;;;;;;;;;;;;;19.09;37.25;94871.69;10462724;28;2050;-43
2023/01/15 13:13:14;;;;;;;;;;;;;;;19.07;37.16;94865.94;10474894;28;2029;-47
2023/01/15 13:18:14;;;;;;;;;;;;;;;19.02;37.29;94877.28;10434447;28;2094;-44
2023/01/15 13:23:14;;;;;;;;;;;;;;;19.02;37.21;94882.53;10438437;28;2101;-48
2023/01/15 13:28:33;;;;;;;;;;;;;;;18.99;36.99;94871.81;10442624;28;2053;-45
2023/01/15 13:33:47;;;;;;;;;;;;;;;18.97;36.90;94901.00;10407889;28;2167;-46
2023/01/15 13:38:49;;;;;;;;;;;;;;;18.95;36.92;94910.22;10432157;28;2141;-45
2023/01/15 13:43:54;;;;;;;;;;;;;;;18.92;36.69;94919.44;10431124;28;2047;-47
2023/01/15 13:48:54;;;;;;;;;;;;;;;18.91;36.82;94928.41;10429147;28;2084;-45
2023/01/15 13:53:54;;;;;;;;;;;;;;;18.90;36.83;94932.06;10424368;28;2065;-45
2023/01/15 13:58:58;;;;;;;;;;;;;;;18.89;36.90;94967.28;10437930;28;2201;-46
2023/01/15 14:04:00;;;;;;;;;;;;;;;18.86;36.52;94954.69;10434919;28;2133;-47
2023/01/15 14:09:00;;;;;;;;;;;;;;;18.87;36.54;94976.50;10435988;28;2069;-48
2023/01/15 14:14:07;;;;;;;;;;;;;;;18.84;36.45;94990.97;10434590;28;2180;-50
2023/01/15 14:19:37;;;;;;;;;;;;;;;18.82;36.28;94989.69;10418362;28;2034;-44
2023/01/15 14:24:46;;;;;;;;;;;;;;;18.80;36.40;94994.44;10425742;28;1974;-49
2023/01/15 14:29:49;;;;;;;;;;;;;;;18.79;36.46;94998.91;10424407;28;2058;-45
2023/01/15 14:34:53;;;;;;;;;;;;;;;18.77;36.37;95016.00;10429493;28;2264;-46
2023/01/15 14:39:57;;;;;;;;;;;;;;;18.76;36.57;95025.72;10426894;28;2288;-45
2023/01/15 14:45:01;;;;;;;;;;;;;;;18.74;36.55;95046.22;10413117;28;2067;-47
2023/01/15 14:50:20;;;;;;;;;;;;;;;18.76;36.54;95051.19;10431514;28;2067;-46
2023/01/15 14:55:21;;;;;;;;;;;;;;;18.79;35.83;95051.44;10425868;28;2239;-48
2023/01/15 15:00:21;;;;;;;;;;;;;;;18.78;35.47;95064.81;10432613;28;2177;-47
2023/01/15 15:05:21;;;;;;;;;;;;;;;18.80;35.28;95058.22;10438611;28;1975;-46
2023/01/15 15:10:26;;;;;;;;;;;;;;;18.82;35.09;95050.84;10432398;28;2064;-47
2023/01/15 15:15:26;;;;;;;;;;;;;;;18.87;34.86;95061.31;10422377;28;2027;-44
2023/01/15 15:20:46;;;;;;;;;;;;;;;18.89;34.83;95051.31;10411408;28;2410;-45
2023/01/15 15:25:50;;;;;;;;;;;;;;;18.91;34.90;95001.91;10433450;28;2066;-47
2023/01/15 15:30:50;;;;;;;;;;;;;;;18.97;34.78;95040.19;10422870;28;2237;-46
2023/01/15 15:35:57;;;;;;;;;;;;;;;19.01;34.82;95053.53;10426977;28;2100;-47
2023/01/15 15:40:58;;;;;;;;;;;;;;;19.04;35.09;95051.13;10424860;28;2108;-45
2023/01/15 15:51:24;;;;;;;;;;;;;;;19.09;35.34;95058.97;10431193;28;2098;-46
2023/01/15 15:56:24;;;;;;;;;;;;;;;19.12;35.12;95066.31;10417942;28;2140;-49
2023/01/15 16:01:25;;;;;;;;;;;;;;;19.12;35.27;95053.16;10414043;28;2143;-48
2023/01/15 16:06:26;;;;;;;;;;;;;;;19.16;35.18;95048.13;10406699;28;2074;-47
2023/01/15 16:11:26;;;;;;;;;;;;;;;19.19;35.41;95039.66;10399667;28;2072;-44
2023/01/15 16:16:26;;;;;;;;;;;;;;;19.29;35.56;95040.31;10395495;28;2097;-46
2023/01/15 16:21:36;;;;;;;;;;;;;;;19.37;35.80;95055.50;10416490;28;2099;-47
2023/01/15 16:26:37;;;;;;;;;;;;;;;19.32;35.30;95047.66;10430003;28;2074;-44
2023/01/15 16:31:37;;;;;;;;;;;;;;;19.36;35.27;95053.16;10434667;28;2057;-60
2023/01/15 16:36:38;;;;;;;;;;;;;;;19.43;35.28;95053.59;10439694;28;2033;-46
2023/01/15 16:41:41;;;;;;;;;;;;;;;19.44;35.13;95057.78;10427656;28;2053;-47
2023/01/15 16:46:48;;;;;;;;;;;;;;;19.39;35.22;95053.38;10430268;28;2058;-46
2023/01/15 16:51:49;;;;;;;;;;;;;;;19.39;35.32;95055.22;10420483;28;2168;-49
2023/01/15 16:56:50;;;;;;;;;;;;;;;19.53;34.76;95056.09;10441896;28;2065;-47
2023/01/15 17:01:55;;;;;;;;;;;;;;;19.44;34.49;95053.31;10425198;28;2197;-46
2023/01/15 17:06:56;;;;;;;;;;;;;;;19.52;34.64;95048.47;10429084;28;2040;-47
2023/01/15 17:11:57;;;;;;;;;;;;;;;19.47;34.39;95057.22;10432576;28;2066;-47
2023/01/15 17:17:17;;;;;;;;;;;;;;;19.45;34.42;95065.38;10426462;28;2266;-48
2023/01/15 17:22:30;;;;;;;;;;;;;;;19.50;34.25;95075.03;10436890;28;2040;-48
2023/01/15 17:27:30;;;;;;;;;;;;;;;19.52;34.02;95069.50;10425645;28;2180;-48
2023/01/15 17:32:31;;;;;;;;;;;;;;;19.44;33.81;95076.97;10423828;28;2113;-47
2023/01/15 17:37:31;;;;;;;;;;;;;;;19.43;33.82;95078.03;10427136;28;2101;-46
2023/01/15 17:42:31;;;;;;;;;;;;;;;19.40;33.68;95072.56;10433144;28;2156;-46
2023/01/15 17:47:32;;;;;;;;;;;;;;;19.39;33.79;95071.75;10428758;28;2065;-46
2023/01/15 17:52:32;;;;;;;;;;;;;;;19.40;33.85;95070.72;10423728;28;2105;-47
2023/01/15 18:08:11;;;;;;;;;;;;;;;19.39;33.69;95076.25;10435547;28;2081;-45
2023/01/15 18:13:11;;;;;;;;;;;;;;;19.39;33.76;95084.13;10424627;28;2209;-45
2023/01/15 18:18:12;;;;;;;;;;;;;;;19.37;33.48;95083.63;10426563;28;2114;-47
2023/01/15 18:23:12;;;;;;;;;;;;;;;19.40;33.51;95091.75;10430043;28;2046;-46
2023/01/15 18:28:13;;;;;;;;;;;;;;;19.40;33.18;95083.84;10427462;28;2120;-45
2023/01/15 18:33:13;;;;;;;;;;;;;;;19.39;33.36;95086.78;10427955;28;2109;-45
2023/01/15 18:38:13;;;;;;;;;;;;;;;19.41;33.48;95079.38;10437411;28;2014;-46
2023/01/15 18:48:32;;;;;;;;;;;;;;;19.40;33.11;95069.91;10433881;28;2062;-47
2023/01/15 18:53:33;;;;;;;;;;;;;;;19.40;33.29;95065.47;10444686;28;1815;-44
2023/01/15 18:58:33;;;;;;;;;;;;;;;19.40;33.25;95070.72;10429042;28;1853;-46
2023/01/15 19:03:33;;;;;;;;;;;;;;;19.50;33.39;95077.69;10441872;28;1918;-47
2023/01/15 19:08:33;;;;;;;;;;;;;;;19.57;33.75;95072.06;10447536;28;1811;-47
2023/01/15 19:13:34;;;;;;;;;;;;;;;19.58;34.61;95074.41;10441983;28;1804;-47
2023/01/15 19:18:40;;;;;;;;;;;;;;;19.57;34.56;95074.69;10436503;28;1757;-43
2023/01/15 19:23:40;;;;;;;;;;;;;;;19.56;34.28;95066.03;10439897;28;1979;-44
2023/01/15 19:28:41;;;;;;;;;;;;;;;19.57;34.54;95061.56;10442253;28;1760;-45
2023/01/15 19:33:42;;;;;;;;;;;;;;;19.58;34.37;95055.25;10441780;28;2090;-46
2023/01/15 19:38:42;;;;;;;;;;;;;;;19.57;34.31;95036.06;10429128;28;1756;-48
2023/01/15 19:59:52;;;;;;;;;;;;;;;19.60;34.22;95018.94;10441226;28;1775;-44
2023/01/15 20:04:53;;;;;;;;;;;;;;;19.64;34.26;95001.53;10444644;28;1913;-48
2023/01/15 20:09:53;;;;;;;;;;;;;;;19.66;34.73;94989.66;10439817;28;1814;-45
2023/01/15 20:14:53;;;;;;;;;;;;;;;19.66;34.32;94991.50;10443098;28;1753;-44
2023/01/15 20:19:54;;;;;;;;;;;;;;;19.65;34.37;94982.84;10430304;28;1758;-47
2023/01/15 20:24:54;;;;;;;;;;;;;;;19.66;34.55;94981.00;10430198;28;1926;-44
2023/01/15 20:29:55;;;;;;;;;;;;;;;19.67;34.52;94978.06;10449435;28;1756;-43
2023/01/15 20:34:55;;;;;;;;;;;;;;;19.67;34.39;94985.19;10447295;28;1751;-46
2023/01/15 20:39:56;;;;;;;;;;;;;;;19.67;34.43;94979.91;10449037;28;1903;-46
2023/01/15 20:44:56;;;;;;;;;;;;;;;19.65;34.37;94963.66;10448723;28;1939;-45
2023/01/15 20:49:57;;;;;;;;;;;;;;;19.65;34.38;94968.91;10443187;28;2132;-45
2023/01/15 20:54:57;;;;;;;;;;;;;;;19.64;34.37;94969.97;10447336;28;1787;-44
2023/01/15 20:59:57;;;;;;;;;;;;;;;19.64;34.23;94962.84;10436788;28;1996;-45
2023/01/15 21:04:58;;;;;;;;;;;;;;;19.61;34.20;94965.28;10428199;28;1959;-46
2023/01/15 21:09:58;;;;;;;;;;;;;;;19.73;34.40;94955.09;10427358;28;2001;-46
2023/01/15 21:14:58;;;;;;;;;;;;;;;19.71;34.98;94936.22;10433469;28;2124;-45
2023/01/15 21:19:59;;;;;;;;;;;;;;;19.70;33.73;94938.03;10434062;28;2137;-48
2023/01/15 21:24:59;;;;;;;;;;;;;;;19.66;33.35;94933.66;10433239;28;1958;-45
2023/01/15 21:29:59;;;;;;;;;;;;;;;19.61;33.73;94931.91;10431877;28;2100;-50
2023/01/15 21:34:59;;;;;;;;;;;;;;;19.56;33.35;94923.31;10436567;28;2014;-48
2023/01/15 21:40:00;;;;;;;;;;;;;;;19.54;33.62;94915.69;10445907;28;2033;-47
2023/01/15 21:45:00;;;;;;;;;;;;;;;19.49;33.45;94913.91;10431022;28;2029;-48
2023/01/15 21:50:01;;;;;;;;;;;;;;;19.48;33.42;94911.59;10440640;28;2120;-45
2023/01/15 21:55:02;;;;;;;;;;;;;;;19.43;33.35;94904.56;10435985;28;2064;-50
2023/01/15 22:00:02;;;;;;;;;;;;;;;19.42;33.46;94894.34;10433163;28;2053;-48
2023/01/15 22:05:03;;;;;;;;;;;;;;;19.40;33.39;94886.75;10434683;28;1973;-45
2023/01/15 22:10:03;;;;;;;;;;;;;;;19.37;33.43;94874.16;10446142;28;2111;-47
2023/01/15 22:15:04;;;;;;;;;;;;;;;19.36;33.70;94862.09;10437551;28;1950;-48
2023/01/15 22:20:05;;;;;;;;;;;;;;;19.33;33.52;94867.91;10423706;28;2138;-47
2023/01/15 22:25:07;;;;;;;;;;;;;;;19.28;33.61;94857.47;10428750;28;2160;-49
2023/01/15 22:30:11;;;;;;;;;;;;;;;19.27;33.62;94842.75;10429527;28;2074;-45
2023/01/15 22:35:11;;;;;;;;;;;;;;;19.23;33.74;94839.16;10425043;28;1966;-46
2023/01/15 22:40:12;;;;;;;;;;;;;;;19.19;33.57;94835.53;10429691;28;1999;-47
2023/01/15 22:45:12;;;;;;;;;;;;;;;19.17;33.79;94824.53;10417992;28;2022;-45
2023/01/15 22:50:13;;;;;;;;;;;;;;;19.15;33.89;94818.78;10422855;28;1978;-46
2023/01/15 22:55:13;;;;;;;;;;;;;;;19.12;33.63;94810.69;10429404;28;2028;-45
2023/01/15 23:00:13;;;;;;;;;;;;;;;19.06;34.01;94799.47;10428040;28;2089;-48
2023/01/15 23:05:14;;;;;;;;;;;;;;;19.03;33.77;94794.81;10435901;28;2011;-48
2023/01/15 23:10:14;;;;;;;;;;;;;;;18.95;33.69;94778.91;10434181;28;2066;-46
2023/01/15 23:15:15;;;;;;;;;;;;;;;18.89;33.74;94766.94;10432150;28;2030;-48
2023/01/15 23:20:15;;;;;;;;;;;;;;;18.84;33.96;94754.66;10432980;28;2038;-47
2023/01/15 23:25:15;;;;;;;;;;;;;;;18.79;33.79;94749.50;10436477;28;1978;-44
2023/01/15 23:30:16;;;;;;;;;;;;;;;18.75;33.85;94737.22;10427096;28;1982;-46
2023/01/15 23:35:16;;;;;;;;;;;;;;;18.72;33.82;94735.94;10430730;28;2121;-45
2023/01/15 23:40:16;;;;;;;;;;;;;;;18.69;33.67;94718.16;10412993;28;2013;-48
2023/01/15 23:50:36;;;;;;;;;;;;;;;18.61;33.82;94695.94;10425921;28;1977;-47
2023/01/15 23:55:36;;;;;;;;;;;;;;;18.58;33.80;94680.00;10429405;28;1994;-45
